Huvudsida
METAR-TAF:

METAR-TAF

Flygplatser :

Osijeks flygplats

Osijek, Kroatien

latitud: 45-27N, longitud: 018-48E, höjd: 88 m

Aktuellt väderrapport

Denna rapport gjordes för 11 minuter sedan, klockan 21:00 UTC
Vind 6 kt från sydväst
Temperatur 14°C
Fuktighet 88%
Tryck 1011 hPa
Sikt 10 km eller mer
Spridda moln på en höjd av 4300 ft

METAR: LDOS 212100Z 22006KT 9999 SCT043 14/12 Q1011

Tid: 23:11 (21:11 UTC)

Väderprognos

Denna rapport gjordes för 3 timmar och 46 minuter sedan, klockan 17:25 UTC
Prognos gäller från 21 kl. 18 UTC till 22 kl. 18 UTC
Vind 10 kt från sydväst
Sikt 10 km eller mer
Spridda moln på en höjd av 3500 ft
Blir
från 22 kl. 06 UTC till 22 kl. 08 UTC
Vind 10 kt från väst
Sannolikhet 30% :
Temporärt
från 22 kl. 11 UTC till 22 kl. 17 UTC
Få moln på en höjd av 3000 ft, Cumulonimbus.
Spridda moln på en höjd av 3500 ft
åska, regn

TAF: LDOS 211725Z 2118/2218 22010KT 9999 SCT035 TX22/2214Z TN09/2204Z BECMG 2206/2208 28010KT PROB30 TEMPO 2211/2217 TSRA FEW030CB SCT035

Aktuella väderrapporter och prognoser från 4000 flygplatser (METAR- och TAF-rapporter).

De tillgängliga stationerna syns som gula och röda prickar på kartan.

För musen över prickarna för att se namnen på stationerna.

Klicka sedan för att få väderrapporter och prognoser.

För att ändra kartan: Klicka på de gröna knapparna med ett svart kors på för att zooma in; den gröna knappen med ett streck på för att zooma ut; eller på de gröna pilarna för angränsande kartor.


METAR-TAF: